Time;durP1;ratioP1;P1;durP2;ratioP2;P2;SDS_P1;SDS_P2;PMS_P1;PMS_P2;Temp;Humidity;BMP_temperature;BMP_pressure;BME280_temperature;BME280_humidity;BME280_pressure;Samples;Min_cycle;Max_cycle;Signal;HPM_P1;HPM_P2
2023/05/10 00:00:46;;;;;;;3.50;3.20;;;19.10;99.90;;;;;;4941287;28;20457;-75
2023/05/10 00:03:14;;;;;;;4.80;3.83;;;19.10;99.90;;;;;;4941509;28;20438;-74
2023/05/10 00:05:40;;;;;;;4.30;3.90;;;19.10;99.90;;;;;;4925640;28;20480;-75
2023/05/10 00:08:06;;;;;;;4.90;3.93;;;19.10;99.90;;;;;;4957154;28;20494;-75
2023/05/10 00:10:35;;;;;;;4.80;4.30;;;19.10;99.90;;;;;;4974764;28;20402;-75
2023/05/10 00:13:03;;;;;;;4.20;3.80;;;19.10;99.90;;;;;;4957095;28;20938;-75
2023/05/10 00:15:34;;;;;;;4.60;3.90;;;19.10;99.90;;;;;;4974287;28;20416;-75
2023/05/10 00:18:00;;;;;;;4.53;4.13;;;19.10;99.90;;;;;;4957125;28;20934;-75
2023/05/10 00:20:28;;;;;;;4.03;3.73;;;19.10;99.90;;;;;;4974309;28;20398;-75
2023/05/10 00:22:54;;;;;;;4.20;3.57;;;19.10;99.90;;;;;;4974210;28;20469;-75
2023/05/10 00:25:21;;;;;;;5.37;4.73;;;19.00;99.90;;;;;;4941251;28;20460;-75
2023/05/10 00:27:47;;;;;;;4.60;4.20;;;19.10;99.90;;;;;;4941881;28;20413;-75
2023/05/10 00:30:13;;;;;;;5.03;4.30;;;19.00;99.90;;;;;;4945093;28;20489;-75
2023/05/10 00:32:45;;;;;;;8.40;4.47;;;19.00;99.90;;;;;;4960741;28;20434;-75
2023/05/10 00:35:11;;;;;;;4.60;4.20;;;19.00;99.90;;;;;;4960890;28;20415;-74
2023/05/10 00:37:37;;;;;;;4.40;4.00;;;19.00;99.90;;;;;;4960775;28;20460;-75
2023/05/10 00:40:03;;;;;;;5.43;4.93;;;19.00;99.90;;;;;;4960751;28;20402;-75
2023/05/10 00:42:31;;;;;;;3.70;3.40;;;19.00;99.90;;;;;;4944447;28;20464;-74
2023/05/10 00:45:04;;;;;;;4.50;4.10;;;19.00;99.90;;;;;;4960856;28;20473;-75
2023/05/10 00:47:34;;;;;;;4.50;4.07;;;19.00;99.90;;;;;;4928936;28;20840;-75
2023/05/10 00:50:02;;;;;;;4.40;4.00;;;19.00;99.90;;;;;;4960594;28;20494;-74
2023/05/10 00:52:29;;;;;;;5.40;3.83;;;19.00;99.90;;;;;;4960439;28;20445;-75
2023/05/10 00:54:56;;;;;;;4.70;4.30;;;19.00;99.90;;;;;;4944480;28;20496;-74
2023/05/10 00:57:25;;;;;;;4.30;3.90;;;19.00;99.90;;;;;;4960772;28;20505;-75
2023/05/10 00:59:53;;;;;;;3.77;3.47;;;19.00;99.90;;;;;;4944613;28;20422;-74
2023/05/10 01:02:20;;;;;;;4.60;4.13;;;18.90;99.90;;;;;;4944413;28;20472;-75
2023/05/10 01:04:46;;;;;;;4.90;4.23;;;18.90;99.90;;;;;;4944497;28;20461;-75
2023/05/10 01:07:14;;;;;;;4.97;4.43;;;18.90;99.90;;;;;;4960513;28;20528;-75
2023/05/10 01:13:43;;;;;;;4.40;4.00;;;18.90;99.90;;;;;;4977224;28;20481;-75
2023/05/10 01:16:09;;;;;;;4.43;3.60;;;18.90;99.90;;;;;;4960292;28;20492;-75
2023/05/10 01:18:38;;;;;;;4.70;4.30;;;18.90;99.90;;;;;;4959989;28;20898;-75
2023/05/10 01:21:45;;;;;;;6.23;4.70;;;18.80;99.90;;;;;;4959946;28;20442;-75
2023/05/10 01:24:14;;;;;;;4.20;3.80;;;18.80;99.90;;;;;;4943678;28;20455;-75
2023/05/10 01:26:50;;;;;;;5.57;4.53;;;18.80;99.90;;;;;;4959352;28;20786;-75
2023/05/10 01:29:33;;;;;;;4.00;3.70;;;18.80;99.90;;;;;;4944024;28;20437;-75
2023/05/10 01:32:22;;;;;;;4.07;3.67;;;18.80;99.90;;;;;;4944472;28;20457;-75
2023/05/10 01:35:10;;;;;;;4.27;3.70;;;18.80;99.90;;;;;;4944126;28;20453;-75
2023/05/10 01:37:40;;;;;;;3.97;3.67;;;18.80;99.90;;;;;;4943927;28;20800;-75
2023/05/10 01:40:27;;;;;;;4.43;3.97;;;18.80;99.90;;;;;;4942685;28;20430;-75
2023/05/10 01:43:04;;;;;;;4.93;4.23;;;18.80;99.90;;;;;;4943979;28;20873;-74
2023/05/10 01:45:56;;;;;;;4.63;4.23;;;18.80;99.90;;;;;;4960135;28;20417;-75
2023/05/10 01:48:29;;;;;;;4.73;4.33;;;18.80;99.90;;;;;;4959498;28;20398;-75
2023/05/10 01:50:59;;;;;;;5.73;4.27;;;18.70;99.90;;;;;;4943565;28;20907;-75
2023/05/10 01:53:29;;;;;;;5.13;4.63;;;18.70;99.90;;;;;;4959658;28;20500;-75
2023/05/10 01:55:56;;;;;;;5.43;4.93;;;18.70;99.90;;;;;;4943756;28;20516;-75
2023/05/10 01:58:31;;;;;;;4.80;4.20;;;18.70;99.90;;;;;;4959473;28;20493;-75
2023/05/10 02:01:04;;;;;;;5.00;4.50;;;18.70;99.90;;;;;;4943319;28;20477;-75
2023/05/10 02:03:32;;;;;;;4.83;4.43;;;18.70;99.90;;;;;;4943126;28;20456;-75
2023/05/10 02:05:59;;;;;;;5.50;4.77;;;18.70;99.90;;;;;;4943363;28;20410;-75
2023/05/10 02:08:28;;;;;;;4.87;4.40;;;18.70;99.90;;;;;;4976316;28;20836;-75
2023/05/10 02:10:58;;;;;;;6.00;4.00;;;18.70;99.90;;;;;;4943218;28;20491;-75
2023/05/10 02:13:33;;;;;;;4.00;3.63;;;18.70;99.90;;;;;;4943714;28;20489;-75
2023/05/10 02:16:02;;;;;;;4.70;4.03;;;18.60;99.90;;;;;;4943195;28;20429;-75
2023/05/10 02:18:29;;;;;;;4.93;3.80;;;18.70;99.90;;;;;;4943354;28;20428;-75
2023/05/10 02:20:57;;;;;;;6.03;4.70;;;18.70;99.90;;;;;;4927204;28;20469;-75
2023/05/10 02:23:26;;;;;;;4.10;3.80;;;18.70;99.90;;;;;;4959188;28;20492;-75
2023/05/10 02:25:57;;;;;;;4.40;4.00;;;18.60;99.90;;;;;;4942887;28;21000;-75
2023/05/10 02:28:27;;;;;;;5.60;5.10;;;18.70;99.90;;;;;;4942981;28;20448;-75
2023/05/10 02:30:58;;;;;;;5.00;4.50;;;18.60;99.90;;;;;;4942796;28;20426;-75
2023/05/10 02:33:25;;;;;;;4.90;4.40;;;18.60;99.90;;;;;;4958644;28;20817;-75
2023/05/10 02:35:55;;;;;;;5.20;4.37;;;18.60;99.90;;;;;;4942823;28;20435;-75
2023/05/10 02:38:26;;;;;;;5.27;4.40;;;18.60;99.90;;;;;;4942535;28;20536;-75
2023/05/10 02:40:53;;;;;;;4.00;3.70;;;18.60;99.90;;;;;;4958518;28;21008;-75
2023/05/10 02:43:23;;;;;;;5.80;4.70;;;18.60;99.90;;;;;;4958566;28;20794;-75
2023/05/10 02:45:52;;;;;;;5.37;4.10;;;18.60;99.90;;;;;;4975805;28;20879;-75
2023/05/10 02:48:20;;;;;;;4.50;4.10;;;18.60;99.90;;;;;;4975593;28;20441;-75
2023/05/10 02:50:51;;;;;;;4.80;4.40;;;18.60;99.90;;;;;;4975360;28;20911;-75
2023/05/10 02:53:29;;;;;;;4.43;4.03;;;18.50;99.90;;;;;;4942417;28;20460;-75
2023/05/10 02:55:59;;;;;;;4.40;4.00;;;18.50;99.90;;;;;;4942308;28;20428;-75
2023/05/10 02:58:30;;;;;;;5.10;4.60;;;18.50;99.90;;;;;;4958256;28;20433;-75
2023/05/10 03:00:58;;;;;;;6.20;3.97;;;18.50;99.90;;;;;;4942389;28;21011;-75
2023/05/10 03:03:28;;;;;;;4.10;3.70;;;18.50;99.90;;;;;;4958194;28;20461;-75
2023/05/10 03:05:55;;;;;;;5.80;4.57;;;18.50;99.90;;;;;;4942339;28;20497;-75
2023/05/10 03:08:29;;;;;;;8.60;4.13;;;18.50;99.90;;;;;;4941914;28;20441;-74
2023/05/10 03:11:25;;;;;;;4.90;4.40;;;18.50;99.90;;;;;;4958137;28;20434;-75
2023/05/10 03:14:08;;;;;;;3.87;3.57;;;18.50;99.90;;;;;;4957847;28;20437;-75
2023/05/10 03:16:47;;;;;;;4.37;4.00;;;18.50;99.90;;;;;;4942615;28;20432;-75
2023/05/10 03:19:34;;;;;;;7.80;4.80;;;18.50;99.90;;;;;;4957964;28;20448;-75
2023/05/10 03:22:09;;;;;;;5.03;4.53;;;18.50;99.90;;;;;;4941717;28;21032;-75
2023/05/10 03:24:39;;;;;;;5.13;4.63;;;18.40;99.90;;;;;;4957766;28;20413;-75
2023/05/10 03:27:10;;;;;;;5.27;4.80;;;18.40;99.90;;;;;;4958160;28;20417;-75
2023/05/10 03:29:41;;;;;;;5.70;4.20;;;18.40;99.90;;;;;;4957739;28;20397;-75
2023/05/10 03:32:08;;;;;;;4.90;4.13;;;18.40;99.90;;;;;;4957679;28;20530;-75
2023/05/10 03:34:40;;;;;;;4.93;4.37;;;18.40;99.90;;;;;;4941813;28;20776;-75
2023/05/10 03:37:13;;;;;;;4.80;4.40;;;18.40;99.90;;;;;;4957401;28;20436;-74
2023/05/10 03:39:42;;;;;;;5.50;4.57;;;18.40;99.90;;;;;;4941095;28;20503;-75
2023/05/10 03:42:11;;;;;;;4.53;4.13;;;18.40;99.90;;;;;;4941271;28;20456;-75
2023/05/10 03:44:39;;;;;;;4.30;3.90;;;18.40;99.90;;;;;;4941661;28;20923;-75
2023/05/10 03:47:05;;;;;;;4.40;4.00;;;18.40;99.90;;;;;;4925846;28;20448;-75
2023/05/10 03:49:34;;;;;;;5.20;4.57;;;18.40;99.90;;;;;;4940636;28;20520;-75
2023/05/10 03:52:03;;;;;;;4.70;4.30;;;18.40;99.90;;;;;;4925733;28;20455;-74
2023/05/10 03:54:29;;;;;;;4.10;3.57;;;18.40;99.90;;;;;;4957324;28;20417;-75
2023/05/10 03:56:58;;;;;;;4.60;4.20;;;18.40;99.90;;;;;;4957837;28;20410;-75
2023/05/10 03:59:26;;;;;;;4.47;4.00;;;18.40;99.90;;;;;;4957307;28;20417;-75
2023/05/10 04:01:55;;;;;;;4.80;4.10;;;18.30;99.90;;;;;;4940936;28;20572;-75
2023/05/10 04:04:21;;;;;;;4.83;4.43;;;18.30;99.90;;;;;;4956921;28;20448;-76
2023/05/10 04:06:49;;;;;;;5.80;4.67;;;18.30;99.90;;;;;;4941341;28;20417;-75
2023/05/10 04:09:16;;;;;;;4.00;3.70;;;18.30;99.90;;;;;;4957125;28;20946;-75
2023/05/10 04:11:44;;;;;;;5.00;4.47;;;18.30;99.90;;;;;;4941578;28;20933;-75
2023/05/10 04:14:10;;;;;;;4.57;4.07;;;18.30;99.90;;;;;;4957069;28;21017;-75
2023/05/10 04:16:38;;;;;;;4.30;3.90;;;18.30;99.90;;;;;;4941255;28;20469;-75
2023/05/10 04:19:04;;;;;;;4.83;4.43;;;18.20;99.90;;;;;;4941169;28;20465;-75
2023/05/10 04:21:33;;;;;;;5.57;4.03;;;18.20;99.90;;;;;;4940900;28;20492;-74
2023/05/10 04:24:01;;;;;;;4.53;4.13;;;18.20;99.90;;;;;;4941168;28;20505;-75
2023/05/10 04:26:27;;;;;;;4.10;3.70;;;18.20;99.90;;;;;;4957087;28;20409;-75
2023/05/10 04:28:53;;;;;;;5.00;4.37;;;18.20;99.90;;;;;;4974179;28;20444;-75
2023/05/10 04:31:22;;;;;;;5.13;4.63;;;18.20;99.90;;;;;;4974169;28;20396;-75
2023/05/10 04:33:50;;;;;;;5.70;4.50;;;18.20;99.90;;;;;;4941328;28;20457;-75
2023/05/10 04:36:16;;;;;;;5.90;4.93;;;18.20;99.90;;;;;;4940987;28;20496;-78
2023/05/10 04:38:42;;;;;;;5.40;4.40;;;18.20;99.90;;;;;;4944929;28;20437;-75
2023/05/10 04:41:13;;;;;;;6.37;5.10;;;18.20;99.90;;;;;;4946552;28;20469;-77
2023/05/10 04:43:41;;;;;;;6.00;5.23;;;18.20;99.90;;;;;;4979713;28;20900;-78
2023/05/10 04:46:07;;;;;;;5.40;4.90;;;18.20;99.90;;;;;;4962172;28;20469;-77
2023/05/10 04:48:35;;;;;;;5.27;4.77;;;18.10;99.90;;;;;;4960757;28;20804;-76
2023/05/10 04:51:03;;;;;;;6.60;5.90;;;18.20;99.90;;;;;;4945047;28;20468;-78
2023/05/10 04:53:31;;;;;;;7.33;6.40;;;18.10;99.90;;;;;;4945983;28;20502;-78
2023/05/10 04:55:57;;;;;;;6.87;5.53;;;18.20;99.90;;;;;;4929716;28;20433;-77
2023/05/10 04:58:23;;;;;;;7.37;6.67;;;18.10;99.90;;;;;;4929957;28;20439;-77
2023/05/10 05:00:52;;;;;;;7.27;5.57;;;18.10;99.90;;;;;;4978539;28;20446;-77
2023/05/10 05:03:21;;;;;;;7.20;5.90;;;18.10;99.90;;;;;;4945477;28;20536;-78
2023/05/10 05:05:48;;;;;;;8.30;6.03;;;18.10;99.90;;;;;;4945974;28;20795;-77
2023/05/10 05:08:14;;;;;;;7.37;6.53;;;18.10;99.90;;;;;;4978459;28;20461;-78
2023/05/10 05:10:44;;;;;;;6.90;6.20;;;18.10;99.90;;;;;;4945557;28;20484;-77
2023/05/10 05:13:13;;;;;;;6.87;5.97;;;18.10;99.90;;;;;;4960420;28;20456;-77
2023/05/10 05:15:43;;;;;;;7.83;6.67;;;18.10;99.90;;;;;;4982647;28;20464;-78
2023/05/10 05:18:09;;;;;;;7.70;6.30;;;18.10;99.90;;;;;;4965443;28;20977;-76
2023/05/10 05:20:40;;;;;;;9.73;7.70;;;18.10;99.90;;;;;;4949355;28;20461;-77
2023/05/10 05:23:06;;;;;;;9.40;7.33;;;18.10;99.90;;;;;;4949039;28;20468;-76
2023/05/10 05:25:39;;;;;;;7.50;6.30;;;18.10;99.90;;;;;;4965057;28;20422;-78
2023/05/10 05:28:05;;;;;;;9.80;7.00;;;18.10;99.90;;;;;;4982018;28;20899;-77
2023/05/10 05:30:34;;;;;;;8.17;7.20;;;18.10;99.90;;;;;;4981637;28;20440;-78
2023/05/10 05:33:02;;;;;;;9.20;8.10;;;18.00;99.90;;;;;;4963904;28;20459;-76
2023/05/10 05:35:30;;;;;;;10.30;8.90;;;18.00;99.90;;;;;;4984347;28;20514;-77
2023/05/10 05:37:57;;;;;;;8.43;7.30;;;18.00;99.90;;;;;;4999166;28;20438;-78
2023/05/10 05:40:22;;;;;;;9.83;8.10;;;18.00;99.90;;;;;;4967514;28;20437;-78
2023/05/10 05:42:51;;;;;;;8.53;7.33;;;18.00;99.90;;;;;;4951359;28;20993;-78
2023/05/10 05:45:17;;;;;;;10.23;9.13;;;18.00;99.90;;;;;;4967609;28;20441;-79
2023/05/10 05:47:43;;;;;;;8.83;7.80;;;18.00;99.90;;;;;;4983475;28;20405;-77
2023/05/10 05:50:12;;;;;;;8.53;7.63;;;18.00;99.90;;;;;;4966043;28;20436;-76
2023/05/10 05:52:38;;;;;;;9.40;8.40;;;18.00;99.90;;;;;;5001221;28;20444;-77
2023/05/10 05:55:07;;;;;;;10.77;8.83;;;18.00;99.90;;;;;;5001352;28;20755;-77
2023/05/10 05:57:35;;;;;;;10.40;8.63;;;18.00;99.90;;;;;;4968570;28;20428;-77
2023/05/10 06:00:02;;;;;;;10.63;8.93;;;18.00;99.90;;;;;;4982601;28;20504;-77
2023/05/10 06:02:38;;;;;;;11.47;8.63;;;18.00;99.90;;;;;;4999290;28;20523;-76
2023/05/10 06:05:07;;;;;;;10.77;8.40;;;18.00;99.90;;;;;;4950309;28;20515;-77
2023/05/10 06:07:33;;;;;;;10.77;9.50;;;18.00;99.90;;;;;;4966073;28;20491;-77
2023/05/10 06:10:02;;;;;;;15.03;9.50;;;17.90;99.90;;;;;;4966067;28;20416;-77
2023/05/10 06:12:28;;;;;;;11.70;9.63;;;17.90;99.90;;;;;;4981567;28;20486;-77
2023/05/10 06:14:54;;;;;;;10.83;9.20;;;17.90;99.90;;;;;;4950421;28;20498;-77
2023/05/10 06:17:23;;;;;;;10.67;8.90;;;17.90;99.90;;;;;;4965510;28;20435;-78
2023/05/10 06:19:49;;;;;;;14.43;10.00;;;17.90;99.90;;;;;;4980899;28;20528;-75
2023/05/10 06:22:18;;;;;;;10.60;8.70;;;17.90;99.90;;;;;;4980923;28;20471;-77
2023/05/10 06:24:44;;;;;;;10.57;8.30;;;17.90;99.90;;;;;;4980813;28;20515;-77
2023/05/10 06:27:15;;;;;;;11.90;9.10;;;17.90;99.90;;;;;;4980281;28;20484;-77
2023/05/10 06:29:41;;;;;;;12.90;10.17;;;17.90;99.90;;;;;;4980840;28;20400;-77
2023/05/10 06:32:07;;;;;;;10.50;9.40;;;17.90;99.90;;;;;;4998127;28;20409;-77
2023/05/10 06:34:34;;;;;;;11.50;9.43;;;17.90;99.90;;;;;;4980958;28;20470;-77
2023/05/10 06:37:00;;;;;;;13.00;9.33;;;17.90;99.90;;;;;;4965049;28;20444;-77
2023/05/10 06:39:26;;;;;;;10.47;8.60;;;17.80;99.90;;;;;;4980839;28;20407;-77
2023/05/10 06:41:52;;;;;;;11.40;8.70;;;17.90;99.90;;;;;;4963686;28;20225;-76
2023/05/10 06:44:21;;;;;;;11.60;9.43;;;17.90;99.90;;;;;;4980270;28;21006;-77
2023/05/10 06:46:47;;;;;;;10.80;8.90;;;17.80;99.90;;;;;;4980492;28;20426;-77
2023/05/10 06:49:18;;;;;;;11.80;8.87;;;17.80;99.90;;;;;;4980409;28;20263;-76
2023/05/10 06:51:44;;;;;;;14.93;10.20;;;17.80;99.90;;;;;;4964624;28;20527;-77
2023/05/10 06:54:13;;;;;;;11.87;9.40;;;17.80;99.90;;;;;;4980620;28;20462;-76
2023/05/10 06:56:41;;;;;;;13.10;9.70;;;17.80;99.90;;;;;;4980540;28;20444;-77
2023/05/10 06:59:07;;;;;;;13.43;10.57;;;17.80;99.90;;;;;;4964501;28;20436;-77
2023/05/10 07:01:35;;;;;;;11.70;9.90;;;17.80;99.90;;;;;;4979797;28;20274;-76
2023/05/10 07:04:03;;;;;;;12.77;9.83;;;17.80;99.90;;;;;;4963653;28;20448;-77
2023/05/10 07:06:29;;;;;;;14.47;11.00;;;17.80;99.90;;;;;;4980534;28;20403;-77
2023/05/10 07:08:58;;;;;;;17.70;12.03;;;17.80;99.90;;;;;;4980082;28;20449;-77
2023/05/10 07:11:24;;;;;;;14.40;10.30;;;17.80;99.90;;;;;;4980253;28;20434;-78
2023/05/10 07:13:50;;;;;;;14.30;11.43;;;17.80;99.90;;;;;;4980418;28;20491;-77
2023/05/10 07:16:21;;;;;;;16.13;12.07;;;17.80;99.90;;;;;;4980380;28;20440;-77
2023/05/10 07:18:47;;;;;;;18.13;12.60;;;17.80;99.90;;;;;;4979976;28;20404;-77
2023/05/10 07:21:13;;;;;;;20.27;11.87;;;17.80;99.90;;;;;;4979868;28;21047;-77
2023/05/10 07:23:39;;;;;;;16.60;12.40;;;17.70;99.90;;;;;;5038640;23;21063;-74
2023/05/10 07:26:05;;;;;;;18.80;11.77;;;17.80;99.90;;;;;;4980407;28;20611;-74
2023/05/10 07:28:30;;;;;;;16.10;12.00;;;17.70;99.90;;;;;;4972301;28;20412;-74
2023/05/10 07:30:57;;;;;;;17.70;11.63;;;17.70;99.90;;;;;;4939960;28;20317;-74
2023/05/10 07:33:27;;;;;;;18.17;11.90;;;17.70;99.90;;;;;;4973250;28;20941;-74
2023/05/10 07:35:55;;;;;;;20.30;12.60;;;17.70;99.90;;;;;;4956154;28;20518;-74
2023/05/10 07:38:23;;;;;;;16.10;12.40;;;17.70;99.90;;;;;;4954167;28;20300;-74
2023/05/10 07:40:48;;;;;;;16.40;11.80;;;17.70;99.90;;;;;;4975503;28;20555;-74
2023/05/10 07:43:14;;;;;;;16.80;11.67;;;17.70;99.90;;;;;;4975214;28;20543;-74
2023/05/10 07:45:40;;;;;;;15.07;11.90;;;17.70;99.90;;;;;;4975267;28;20439;-74
2023/05/10 07:48:08;;;;;;;18.23;10.90;;;17.70;99.90;;;;;;4975416;28;20573;-74
2023/05/10 07:50:34;;;;;;;16.00;11.33;;;17.70;99.90;;;;;;4993099;28;20955;-74
2023/05/10 07:53:00;;;;;;;15.30;11.43;;;17.70;99.90;;;;;;4974874;28;20476;-74
2023/05/10 07:55:28;;;;;;;19.57;12.30;;;17.70;99.90;;;;;;4943260;28;20191;-74
2023/05/10 07:57:54;;;;;;;14.87;11.30;;;17.70;99.90;;;;;;4975170;28;20462;-74
2023/05/10 08:00:20;;;;;;;16.53;11.27;;;17.70;99.90;;;;;;4975084;28;20948;-74
2023/05/10 08:02:50;;;;;;;16.80;12.20;;;17.70;99.90;;;;;;4958206;28;20528;-74
2023/05/10 08:05:18;;;;;;;17.23;12.00;;;17.70;99.90;;;;;;4992593;28;20477;-74
2023/05/10 08:07:44;;;;;;;13.83;10.50;;;17.70;99.90;;;;;;4974881;28;20780;-74
2023/05/10 08:10:15;;;;;;;14.63;10.20;;;17.70;99.90;;;;;;4992459;28;20897;-74
2023/05/10 08:12:41;;;;;;;15.37;11.10;;;17.70;99.90;;;;;;4942882;28;20458;-74
2023/05/10 08:15:08;;;;;;;16.30;11.80;;;17.70;99.90;;;;;;4958960;28;20960;-74
2023/05/10 08:17:33;;;;;;;16.17;11.60;;;17.70;99.90;;;;;;4959196;28;20704;-74
2023/05/10 08:20:04;;;;;;;15.50;11.37;;;17.70;99.90;;;;;;4975203;28;20410;-74
2023/05/10 08:22:31;;;;;;;17.73;12.40;;;17.70;99.90;;;;;;4992040;28;21084;-74
2023/05/10 08:24:59;;;;;;;21.97;13.63;;;17.60;99.90;;;;;;4974995;28;20418;-74
2023/05/10 08:27:25;;;;;;;18.23;11.87;;;17.70;99.90;;;;;;4974766;28;20437;-74
2023/05/10 08:29:52;;;;;;;16.23;12.03;;;17.70;99.90;;;;;;4974969;28;20540;-74
2023/05/10 08:32:22;;;;;;;16.90;12.80;;;17.70;99.90;;;;;;4974901;28;20446;-72
2023/05/10 08:34:53;;;;;;;21.67;13.30;;;17.70;99.90;;;;;;4959321;28;20936;-74
2023/05/10 08:37:19;;;;;;;21.13;14.07;;;17.70;99.90;;;;;;4985769;28;20498;-71
2023/05/10 08:39:47;;;;;;;21.30;13.90;;;17.70;99.90;;;;;;4955527;28;20495;-74
2023/05/10 08:42:16;;;;;;;21.27;14.20;;;17.70;99.90;;;;;;4923683;28;20529;-74
2023/05/10 08:44:42;;;;;;;22.00;14.23;;;17.70;99.90;;;;;;4955553;28;20415;-75
2023/05/10 08:47:15;;;;;;;17.43;12.90;;;17.60;99.90;;;;;;4939895;28;20456;-74
2023/05/10 08:49:48;;;;;;;20.13;14.23;;;17.60;99.90;;;;;;4960031;28;20451;-74
2023/05/10 08:52:16;;;;;;;22.77;15.93;;;17.60;99.90;;;;;;4998127;28;20453;-74
2023/05/10 08:54:42;;;;;;;23.07;14.57;;;17.60;99.90;;;;;;4998080;28;20404;-74
2023/05/10 08:57:08;;;;;;;21.03;15.30;;;17.60;99.90;;;;;;4996402;28;20435;-74
2023/05/10 08:59:39;;;;;;;19.73;14.57;;;17.60;99.90;;;;;;4946481;28;20421;-74
2023/05/10 09:02:07;;;;;;;23.50;15.07;;;17.60;99.90;;;;;;4977944;28;20471;-74
2023/05/10 09:04:33;;;;;;;21.57;15.57;;;17.60;99.90;;;;;;4962148;28;20791;-74
2023/05/10 09:07:02;;;;;;;21.10;14.37;;;17.60;99.90;;;;;;4976965;28;20441;-74
2023/05/10 09:09:32;;;;;;;19.40;14.87;;;17.60;99.90;;;;;;4995598;28;20439;-74
2023/05/10 09:12:00;;;;;;;19.90;13.83;;;17.60;99.90;;;;;;4978056;28;20967;-74
2023/05/10 09:14:26;;;;;;;20.43;13.23;;;17.60;99.90;;;;;;4995767;28;20416;-74
2023/05/10 09:16:54;;;;;;;18.50;13.60;;;17.60;99.90;;;;;;4962076;28;20438;-74
2023/05/10 09:19:23;;;;;;;21.33;14.60;;;17.60;99.90;;;;;;4995465;28;20416;-74
2023/05/10 09:21:49;;;;;;;22.43;15.17;;;17.60;99.90;;;;;;4977765;28;20479;-74
2023/05/10 09:24:20;;;;;;;17.40;13.47;;;17.60;99.90;;;;;;4977870;28;20825;-74
2023/05/10 09:26:48;;;;;;;19.60;14.03;;;17.60;99.90;;;;;;4978554;28;20470;-74
2023/05/10 09:29:15;;;;;;;20.70;14.57;;;17.60;99.90;;;;;;4978162;28;20894;-74
2023/05/10 09:31:44;;;;;;;21.10;14.30;;;17.60;99.90;;;;;;4977777;28;20416;-74
2023/05/10 09:34:10;;;;;;;20.40;13.67;;;17.60;99.90;;;;;;4994907;28;20484;-74
2023/05/10 09:37:01;;;;;;;18.77;13.20;;;17.60;99.90;;;;;;4945027;28;20502;-74
2023/05/10 09:39:34;;;;;;;18.53;13.90;;;17.60;99.90;;;;;;4947787;28;20198;-74
2023/05/10 09:42:06;;;;;;;17.30;12.20;;;17.60;99.90;;;;;;4957750;28;21056;-75
2023/05/10 09:44:33;;;;;;;16.90;13.03;;;17.60;99.90;;;;;;4958076;28;20781;-74
2023/05/10 09:47:01;;;;;;;19.60;12.90;;;17.60;99.90;;;;;;4975477;28;20413;-74
2023/05/10 09:49:29;;;;;;;16.80;12.73;;;17.60;99.90;;;;;;4942067;28;20505;-74
2023/05/10 09:52:04;;;;;;;15.80;11.93;;;17.60;99.90;;;;;;4975260;28;20767;-74
2023/05/10 09:54:31;;;;;;;14.50;11.43;;;17.60;99.90;;;;;;4958076;28;20459;-74
2023/05/10 09:56:57;;;;;;;19.10;11.77;;;17.60;99.90;;;;;;4975095;28;20428;-74
2023/05/10 09:59:29;;;;;;;16.60;10.60;;;17.60;99.90;;;;;;4942281;28;20524;-74
2023/05/10 10:01:59;;;;;;;13.60;10.53;;;17.60;99.90;;;;;;4965961;28;20466;-74
2023/05/10 10:04:26;;;;;;;12.60;9.60;;;17.60;99.90;;;;;;4994888;28;20430;-74
2023/05/10 10:07:07;;;;;;;12.80;10.47;;;17.60;99.90;;;;;;4961266;28;20452;-74
2023/05/10 10:09:34;;;;;;;12.77;9.37;;;17.60;99.90;;;;;;4961056;28;20427;-73
2023/05/10 10:12:03;;;;;;;13.80;9.63;;;17.60;99.90;;;;;;4994337;28;20408;-73
2023/05/10 10:14:30;;;;;;;13.00;9.80;;;17.60;99.90;;;;;;4945186;28;20519;-73
2023/05/10 10:16:56;;;;;;;13.63;9.80;;;17.60;99.90;;;;;;4976970;28;20436;-73
2023/05/10 10:19:22;;;;;;;12.87;9.60;;;17.60;99.90;;;;;;4977086;28;20523;-73
2023/05/10 10:21:52;;;;;;;11.67;9.00;;;17.60;99.90;;;;;;4976471;28;20451;-73
2023/05/10 10:24:18;;;;;;;11.20;9.40;;;17.60;99.90;;;;;;4960712;28;20464;-73
2023/05/10 10:26:47;;;;;;;13.00;9.10;;;17.60;99.90;;;;;;4944766;28;20948;-74
2023/05/10 10:29:26;;;;;;;11.70;9.70;;;17.60;99.90;;;;;;4976805;28;20408;-73
2023/05/10 10:32:27;;;;;;;10.87;8.90;;;17.70;99.90;;;;;;4976702;28;20792;-73
2023/05/10 10:34:56;;;;;;;11.10;8.60;;;17.70;99.90;;;;;;4976995;28;20423;-73
2023/05/10 10:37:43;;;;;;;12.87;10.07;;;17.70;99.90;;;;;;4976641;28;20995;-73
2023/05/10 10:40:30;;;;;;;11.43;9.67;;;17.70;99.90;;;;;;4993865;28;20446;-73
2023/05/10 10:43:18;;;;;;;14.17;10.53;;;17.70;99.90;;;;;;4944577;28;20471;-73
2023/05/10 10:46:07;;;;;;;11.73;9.50;;;17.70;99.90;;;;;;4993549;28;20673;-73
2023/05/10 10:48:33;;;;;;;16.00;10.20;;;17.70;99.90;;;;;;4976453;28;20517;-73
2023/05/10 10:51:00;;;;;;;12.47;9.17;;;17.70;99.90;;;;;;4976224;28;20486;-73
2023/05/10 10:53:30;;;;;;;12.13;9.60;;;17.70;99.90;;;;;;4960158;28;20988;-73
2023/05/10 10:56:09;;;;;;;12.10;9.60;;;17.70;99.90;;;;;;4993588;28;20897;-74
2023/05/10 10:58:40;;;;;;;12.80;9.60;;;17.70;99.90;;;;;;4976318;28;20745;-73
2023/05/10 11:01:34;;;;;;;14.30;9.70;;;17.70;99.90;;;;;;4960259;28;21027;-73
2023/05/10 11:04:02;;;;;;;11.50;8.60;;;17.70;99.90;;;;;;4960381;28;20444;-73
2023/05/10 11:06:33;;;;;;;13.30;9.07;;;17.70;99.90;;;;;;4959731;28;20440;-73
2023/05/10 11:09:05;;;;;;;10.03;8.33;;;17.70;99.90;;;;;;4950000;28;20444;-73
2023/05/10 11:11:36;;;;;;;9.27;8.07;;;17.70;99.90;;;;;;4975574;28;20455;-73
2023/05/10 11:14:06;;;;;;;9.23;8.20;;;17.70;99.90;;;;;;4976186;28;20456;-73
2023/05/10 11:16:44;;;;;;;9.60;8.50;;;17.70;99.90;;;;;;4975975;28;20439;-73
2023/05/10 11:19:12;;;;;;;10.93;8.10;;;17.70;99.90;;;;;;4975880;28;20515;-73
2023/05/10 11:22:12;;;;;;;10.60;8.30;;;17.70;99.90;;;;;;4993046;28;20452;-74
2023/05/10 11:24:55;;;;;;;11.03;8.50;;;17.70;99.90;;;;;;4975242;28;20451;-74
2023/05/10 11:27:23;;;;;;;8.93;7.57;;;17.70;99.90;;;;;;4975543;28;20941;-74
2023/05/10 11:29:52;;;;;;;11.27;8.13;;;17.70;99.90;;;;;;4975676;28;20489;-75
2023/05/10 11:32:19;;;;;;;10.00;8.50;;;17.70;99.90;;;;;;4959573;28;20786;-74
2023/05/10 11:34:48;;;;;;;8.70;7.53;;;17.80;99.90;;;;;;4959696;28;20886;-74
2023/05/10 11:37:14;;;;;;;11.63;7.70;;;17.80;99.90;;;;;;4958905;28;20452;-75
2023/05/10 11:39:47;;;;;;;13.97;8.80;;;17.80;99.90;;;;;;4959950;28;20430;-75
2023/05/10 11:42:15;;;;;;;8.60;7.30;;;17.80;99.90;;;;;;4959118;28;20470;-74
2023/05/10 11:44:45;;;;;;;12.30;8.30;;;17.80;99.90;;;;;;4975512;28;20456;-75
2023/05/10 11:47:12;;;;;;;9.13;8.00;;;17.80;99.90;;;;;;4992619;28;20408;-74
2023/05/10 11:49:44;;;;;;;9.07;7.90;;;17.80;99.90;;;;;;4992904;28;20933;-75
2023/05/10 11:52:12;;;;;;;11.97;7.80;;;17.70;99.90;;;;;;4975604;28;20427;-74
2023/05/10 11:54:44;;;;;;;9.60;7.93;;;17.80;99.90;;;;;;4943550;28;20450;-74
2023/05/10 11:57:13;;;;;;;10.00;8.53;;;17.80;99.90;;;;;;4959375;28;20479;-75
2023/05/10 11:59:41;;;;;;;10.00;7.83;;;17.70;99.90;;;;;;4975155;28;20962;-74
2023/05/10 12:02:07;;;;;;;10.23;8.33;;;17.70;99.90;;;;;;4943039;28;20829;-74
2023/05/10 12:04:33;;;;;;;9.63;7.80;;;17.80;99.90;;;;;;4959275;28;20556;-74
2023/05/10 12:06:59;;;;;;;12.67;8.83;;;17.70;99.90;;;;;;4975254;28;20440;-74
2023/05/10 12:09:28;;;;;;;11.57;8.27;;;17.80;99.90;;;;;;4959549;28;20943;-74
2023/05/10 12:11:58;;;;;;;9.17;8.20;;;17.80;99.90;;;;;;4975005;28;20928;-74
2023/05/10 12:14:24;;;;;;;9.87;8.90;;;17.80;99.90;;;;;;4975084;28;20941;-74
2023/05/10 12:16:53;;;;;;;12.47;8.53;;;17.70;99.90;;;;;;4959104;28;20554;-74
2023/05/10 12:19:20;;;;;;;9.17;8.07;;;17.80;99.90;;;;;;4959208;28;20478;-74
2023/05/10 12:21:49;;;;;;;9.77;8.77;;;17.80;99.90;;;;;;4974872;28;20470;-74
2023/05/10 12:24:19;;;;;;;10.23;9.10;;;17.80;99.90;;;;;;4960522;28;21083;-74
2023/05/10 12:26:48;;;;;;;12.03;9.17;;;17.80;99.90;;;;;;4996359;28;20420;-74
2023/05/10 12:29:18;;;;;;;11.03;9.07;;;17.80;99.90;;;;;;4978936;28;20452;-74
2023/05/10 12:32:01;;;;;;;10.07;8.80;;;17.80;99.90;;;;;;4996222;28;20412;-74
2023/05/10 12:34:31;;;;;;;9.57;8.50;;;17.80;99.90;;;;;;4978832;28;20462;-74
2023/05/10 12:37:01;;;;;;;10.30;8.77;;;17.80;99.90;;;;;;4959497;28;20539;-75
2023/05/10 12:39:42;;;;;;;11.50;8.07;;;17.80;99.90;;;;;;4959268;28;20494;-74
2023/05/10 12:42:11;;;;;;;11.10;7.47;;;17.90;99.90;;;;;;4943111;28;20523;-74
2023/05/10 12:44:38;;;;;;;10.90;7.43;;;17.80;99.90;;;;;;4976640;28;20421;-74
2023/05/10 12:47:06;;;;;;;8.83;7.60;;;17.90;99.90;;;;;;4943521;28;20464;-74
2023/05/10 12:49:33;;;;;;;10.97;9.20;;;17.90;99.90;;;;;;4976375;28;20405;-74
2023/05/10 12:52:06;;;;;;;9.50;8.57;;;17.90;99.90;;;;;;4975085;28;20442;-74
2023/05/10 12:54:34;;;;;;;10.90;9.10;;;17.90;99.90;;;;;;4974922;28;20440;-74